createdAt,value
2022-12-27T00:01:52.737Z,101681.59
2022-12-27T00:04:23.956Z,101670.75
2022-12-27T00:06:54.408Z,101671.03
2022-12-27T00:09:25.618Z,101665.56
2022-12-27T00:11:59.983Z,101672.66
2022-12-27T00:14:31.401Z,101666.00
2022-12-27T00:17:02.252Z,101660.13
2022-12-27T00:19:33.373Z,101662.56
2022-12-27T00:22:04.381Z,101668.34
2022-12-27T00:24:36.775Z,101666.56
2022-12-27T00:27:08.207Z,101652.53
2022-12-27T00:29:39.114Z,101650.69
2022-12-27T00:32:09.955Z,101646.22
2022-12-27T00:34:41.343Z,101650.19
2022-12-27T00:37:11.717Z,101629.66
2022-12-27T00:39:42.948Z,101630.22
2022-12-27T00:42:14.356Z,101619.91
2022-12-27T00:44:45.262Z,101610.13
2022-12-27T00:47:16.166Z,101610.88
2022-12-27T00:49:47.566Z,101610.94
2022-12-27T00:52:19.350Z,101607.09
2022-12-27T00:54:50.733Z,101596.84
2022-12-27T00:57:21.905Z,101601.38
2022-12-27T00:59:53.220Z,101603.78
2022-12-27T01:02:23.742Z,101608.09
2022-12-27T01:04:56.118Z,101598.53
2022-12-27T01:07:27.531Z,101594.78
2022-12-27T01:09:58.449Z,101593.41
2022-12-27T01:12:28.982Z,101590.72
2022-12-27T01:15:00.349Z,101584.69
2022-12-27T01:17:33.191Z,101583.16
2022-12-27T01:20:04.645Z,101575.25
2022-12-27T01:22:35.824Z,101581.03
2022-12-27T01:25:07.687Z,101573.56
2022-12-27T01:27:38.587Z,101564.41
2022-12-27T01:30:09.582Z,101576.97
2022-12-27T01:32:40.672Z,101581.53
2022-12-27T01:35:11.862Z,101575.91
2022-12-27T01:37:42.966Z,101565.97
2022-12-27T01:40:14.856Z,101574.69
2022-12-27T01:42:56.307Z,101580.09
2022-12-27T01:45:30.454Z,101574.69
2022-12-27T01:48:01.554Z,101570.31
2022-12-27T01:50:32.053Z,101570.63
2022-12-27T01:53:25.276Z,101568.00
2022-12-27T01:56:05.636Z,101559.53
2022-12-27T01:58:59.065Z,101563.53
2022-12-27T02:01:35.511Z,101561.59
2022-12-27T02:04:13.032Z,101560.44
2022-12-27T02:06:45.012Z,101550.66
2022-12-27T02:09:50.337Z,101546.84
2022-12-27T02:12:22.685Z,101547.94
2022-12-27T02:14:54.306Z,101549.38
2022-12-27T02:17:28.141Z,101537.94
2022-12-27T02:20:13.967Z,101540.69
2022-12-27T02:23:39.844Z,101529.91
2022-12-27T02:26:44.880Z,101535.63
2022-12-27T02:29:22.665Z,101526.44
2022-12-27T02:32:07.271Z,101534.22
2022-12-27T02:34:47.116Z,101523.78
2022-12-27T02:37:18.330Z,101521.72
2022-12-27T02:39:50.904Z,101526.78
2022-12-27T02:42:40.519Z,101512.44
2022-12-27T02:45:38.811Z,101518.31
2022-12-27T02:48:32.005Z,101510.81
2022-12-27T02:51:24.147Z,101511.22
2022-12-27T02:54:26.052Z,101500.53
2022-12-27T02:57:55.261Z,101503.88
2022-12-27T03:00:45.430Z,101499.94
2022-12-27T03:03:44.742Z,101485.38
2022-12-27T03:06:43.542Z,101491.66
2022-12-27T03:10:04.579Z,101485.78
2022-12-27T03:13:00.235Z,101491.75
2022-12-27T03:15:58.877Z,101480.94
2022-12-27T03:18:33.174Z,101482.19
2022-12-27T03:21:24.038Z,101483.06
2022-12-27T03:24:16.146Z,101477.59
2022-12-27T03:26:49.812Z,101474.44
2022-12-27T03:29:40.201Z,101479.28
2022-12-27T03:32:31.221Z,101468.88
2022-12-27T03:35:14.763Z,101465.50
2022-12-27T03:38:04.328Z,101467.03
2022-12-27T03:41:26.247Z,101470.03
2022-12-27T03:43:57.366Z,101465.19
2022-12-27T03:46:36.238Z,101463.88
2022-12-27T03:49:29.069Z,101473.63
2022-12-27T03:52:33.877Z,101465.41
2022-12-27T03:55:07.008Z,101466.22
2022-12-27T03:57:38.623Z,101448.69
2022-12-27T04:00:10.840Z,101457.84
2022-12-27T04:02:44.547Z,101449.28
2022-12-27T04:05:16.163Z,101447.22
2022-12-27T04:08:05.195Z,101444.06
2022-12-27T04:10:54.070Z,101445.34
2022-12-27T04:13:43.591Z,101435.41
2022-12-27T04:16:33.212Z,101444.22
2022-12-27T04:19:22.220Z,101441.06
2022-12-27T04:22:11.247Z,101449.69
2022-12-27T04:25:00.821Z,101440.16
2022-12-27T04:27:51.179Z,101436.69
2022-12-27T04:30:40.626Z,101437.63
2022-12-27T04:33:29.438Z,101431.88
2022-12-27T04:36:05.974Z,101437.72
2022-12-27T04:38:37.863Z,101430.56
2022-12-27T04:41:26.796Z,101430.78
2022-12-27T04:44:16.142Z,101422.91
2022-12-27T04:47:05.109Z,101428.56
2022-12-27T04:49:54.807Z,101415.91
2022-12-27T04:52:44.701Z,101432.88
2022-12-27T04:55:23.242Z,101432.06
2022-12-27T04:57:55.091Z,101428.78
2022-12-27T05:00:49.271Z,101426.94
2022-12-27T05:03:23.342Z,101430.44
2022-12-27T05:05:55.172Z,101429.44
2022-12-27T05:08:46.412Z,101425.34
2022-12-27T05:11:35.799Z,101420.63
2022-12-27T05:14:10.990Z,101415.84
2022-12-27T05:16:44.369Z,101434.16
2022-12-27T05:19:16.970Z,101423.06
2022-12-27T05:22:05.949Z,101421.72
2022-12-27T05:24:55.529Z,101423.69
2022-12-27T05:27:26.672Z,101424.78
2022-12-27T05:29:57.613Z,101432.03
2022-12-27T05:32:28.605Z,101432.00
2022-12-27T05:34:59.799Z,101428.09
2022-12-27T05:37:32.784Z,101418.63
2022-12-27T05:40:03.366Z,101437.84
2022-12-27T05:42:34.391Z,101431.97
2022-12-27T05:45:06.095Z,101429.91
2022-12-27T05:47:37.132Z,101440.19
2022-12-27T05:50:09.801Z,101454.00
2022-12-27T05:52:41.503Z,101451.25
2022-12-27T05:55:14.211Z,101447.69
2022-12-27T05:57:46.271Z,101459.72
2022-12-27T06:00:17.883Z,101455.34
2022-12-27T06:02:49.958Z,101466.22
2022-12-27T06:05:22.236Z,101459.13
2022-12-27T06:07:54.323Z,101464.31
2022-12-27T06:10:26.290Z,101474.91
2022-12-27T06:12:58.592Z,101455.09
2022-12-27T06:15:30.783Z,101457.03
2022-12-27T06:18:05.408Z,101461.59
2022-12-27T06:20:37.885Z,101458.81
2022-12-27T06:23:09.064Z,101459.66
2022-12-27T06:25:40.120Z,101471.84
2022-12-27T06:28:11.196Z,101473.78
2022-12-27T06:30:42.124Z,101468.97
2022-12-27T06:33:13.345Z,101478.88
2022-12-27T06:35:44.042Z,101484.50
2022-12-27T06:38:15.228Z,101483.22
2022-12-27T06:40:45.903Z,101485.28
2022-12-27T06:43:17.328Z,101495.28
2022-12-27T06:46:01.067Z,101495.53
2022-12-27T06:48:32.631Z,101499.63
2022-12-27T06:51:09.860Z,101492.41
2022-12-27T06:53:41.337Z,101492.84
2022-12-27T06:56:20.596Z,101493.13
2022-12-27T06:58:53.331Z,101501.16
2022-12-27T07:01:27.052Z,101502.28
2022-12-27T07:04:01.351Z,101503.19
2022-12-27T07:06:33.590Z,101511.59
2022-12-27T07:09:05.147Z,101515.69
2022-12-27T07:11:37.392Z,101507.09
2022-12-27T07:14:11.287Z,101502.91
2022-12-27T07:16:45.691Z,101505.13
2022-12-27T07:19:16.983Z,101506.50
2022-12-27T07:21:48.564Z,101509.88
2022-12-27T07:24:19.832Z,101511.09
2022-12-27T07:26:51.264Z,101513.53
2022-12-27T07:29:41.895Z,101510.78
2022-12-27T07:32:16.562Z,101511.72
2022-12-27T07:34:47.301Z,101523.19
2022-12-27T07:37:19.565Z,101527.56
2022-12-27T07:39:50.989Z,101528.81
2022-12-27T07:42:22.098Z,101527.75
2022-12-27T07:44:53.205Z,101540.97
2022-12-27T07:47:24.991Z,101541.34
2022-12-27T07:49:56.132Z,101539.97
2022-12-27T07:52:28.613Z,101547.50
2022-12-27T07:55:00.052Z,101548.44
2022-12-27T07:57:33.061Z,101554.03
2022-12-27T08:00:05.876Z,101553.31
2022-12-27T08:02:42.300Z,101555.16
2022-12-27T08:05:13.303Z,101560.78
2022-12-27T08:07:45.184Z,101562.44
2022-12-27T08:10:16.375Z,101567.06
2022-12-27T08:12:47.292Z,101567.19
2022-12-27T08:15:18.489Z,101573.44
2022-12-27T08:17:49.259Z,101571.84
2022-12-27T08:20:20.427Z,101577.34
2022-12-27T08:22:51.400Z,101574.06
2022-12-27T08:25:23.248Z,101582.16
2022-12-27T08:27:54.544Z,101590.59
2022-12-27T08:30:25.487Z,101620.75
2022-12-27T08:32:56.593Z,101648.19
2022-12-27T08:35:51.736Z,101638.41
2022-12-27T08:38:19.777Z,101636.03
2022-12-27T08:40:50.793Z,101644.25
2022-12-27T08:43:22.333Z,101641.38
2022-12-27T08:45:53.641Z,101647.25
2022-12-27T08:48:25.129Z,101657.97
2022-12-27T08:50:56.844Z,101680.38
2022-12-27T08:53:28.293Z,101673.09
2022-12-27T08:55:59.551Z,101689.22
2022-12-27T08:58:30.387Z,101699.34
2022-12-27T09:01:09.684Z,101699.94
2022-12-27T09:03:40.998Z,101704.06
2022-12-27T09:06:15.679Z,101701.38
2022-12-27T09:08:48.455Z,101700.34
2022-12-27T09:11:22.358Z,101704.22
2022-12-27T09:13:53.815Z,101706.53
2022-12-27T09:16:26.971Z,101711.44
2022-12-27T09:19:01.103Z,101705.16
2022-12-27T09:21:35.396Z,101709.34
2022-12-27T09:24:06.897Z,101717.34
2022-12-27T09:26:37.627Z,101726.03
2022-12-27T09:29:08.714Z,101723.28
2022-12-27T09:31:39.632Z,101710.41
2022-12-27T09:34:12.899Z,101721.94
2022-12-27T09:36:45.276Z,101721.50
2022-12-27T09:39:18.535Z,101720.19
2022-12-27T09:45:45.853Z,101732.44
2022-12-27T09:48:18.239Z,101725.50
2022-12-27T09:50:57.139Z,101726.59
2022-12-27T09:53:53.926Z,101732.94
2022-12-27T09:56:54.094Z,101730.47
2022-12-27T09:59:29.509Z,101732.06
2022-12-27T10:02:01.645Z,101729.84
2022-12-27T10:05:17.964Z,101733.16
2022-12-27T10:07:46.459Z,101724.44
2022-12-27T10:10:23.586Z,101726.63
2022-12-27T10:13:04.923Z,101726.06
2022-12-27T10:16:02.547Z,101724.19
2022-12-27T10:18:51.921Z,101735.94
2022-12-27T10:21:28.316Z,101731.91
2022-12-27T10:24:21.972Z,101734.66
2022-12-27T10:26:55.887Z,101745.88
2022-12-27T10:29:28.572Z,101746.72
2022-12-27T10:31:59.917Z,101749.69
2022-12-27T10:34:31.149Z,101761.50
2022-12-27T10:37:02.239Z,101753.28
2022-12-27T10:39:35.264Z,101760.63
2022-12-27T10:42:38.663Z,101771.59
2022-12-27T10:45:34.811Z,101780.13
2022-12-27T10:48:19.070Z,101774.91
2022-12-27T10:50:58.670Z,101784.72
2022-12-27T10:53:40.908Z,101795.34
2022-12-27T10:56:40.596Z,101774.63
2022-12-27T10:59:19.940Z,101792.38
2022-12-27T11:02:03.535Z,101793.22
2022-12-27T11:04:36.032Z,101795.16
2022-12-27T11:07:06.327Z,101788.00
2022-12-27T11:09:46.389Z,101789.09
2022-12-27T11:12:33.676Z,101796.50
2022-12-27T11:15:08.026Z,101797.56
2022-12-27T11:17:43.091Z,101805.78
2022-12-27T11:20:14.170Z,101810.41
2022-12-27T11:22:52.611Z,101810.97
2022-12-27T11:25:23.906Z,101815.34
2022-12-27T11:28:03.041Z,101804.13
2022-12-27T11:30:42.463Z,101798.94
2022-12-27T11:33:26.902Z,101810.66
2022-12-27T11:35:58.902Z,101807.66
2022-12-27T11:38:32.652Z,101806.28
2022-12-27T11:41:30.918Z,101811.25
2022-12-27T11:44:05.055Z,101806.03
2022-12-27T11:46:47.585Z,101812.59
2022-12-27T11:49:23.906Z,101815.09
2022-12-27T11:52:24.511Z,101812.91
2022-12-27T11:55:06.406Z,101808.53
2022-12-27T11:58:01.930Z,101809.91
2022-12-27T12:00:41.669Z,101809.88
2022-12-27T12:03:35.742Z,101813.72
2022-12-27T12:06:44.001Z,101812.91
2022-12-27T12:09:20.752Z,101821.91
2022-12-27T12:12:14.328Z,101816.47
2022-12-27T12:14:47.255Z,101816.44
2022-12-27T12:17:39.381Z,101824.09
2022-12-27T12:20:25.388Z,101818.09
2022-12-27T12:23:06.601Z,101813.72
2022-12-27T12:26:03.659Z,101802.78
2022-12-27T12:29:00.753Z,101801.16
2022-12-27T12:31:57.410Z,101792.66
2022-12-27T12:34:58.939Z,101794.59
2022-12-27T12:38:06.322Z,101792.13
2022-12-27T12:40:55.532Z,101798.94
2022-12-27T12:43:44.574Z,101791.84
2022-12-27T12:46:25.959Z,101797.56
2022-12-27T12:49:33.538Z,101801.63
2022-12-27T12:52:31.447Z,101810.59
2022-12-27T12:55:20.388Z,101809.56
2022-12-27T12:58:18.982Z,101814.22
2022-12-27T13:01:05.154Z,101819.59
2022-12-27T13:03:57.504Z,101820.16
2022-12-27T13:06:40.468Z,101818.22
2022-12-27T13:09:17.535Z,101814.13
2022-12-27T13:12:03.484Z,101813.06
2022-12-27T13:14:48.249Z,101807.31
2022-12-27T13:17:30.513Z,101817.41
2022-12-27T13:20:25.929Z,101810.06
2022-12-27T13:23:16.303Z,101816.88
2022-12-27T13:26:05.894Z,101820.69
2022-12-27T13:29:20.593Z,101817.94
2022-12-27T13:32:09.833Z,101827.72
2022-12-27T13:34:41.127Z,101829.63
2022-12-27T13:37:39.590Z,101832.94
2022-12-27T13:40:25.583Z,101833.97
2022-12-27T13:42:56.918Z,101840.75
2022-12-27T13:45:50.997Z,101838.28
2022-12-27T13:48:42.378Z,101836.59
2022-12-27T13:51:49.725Z,101841.78
2022-12-27T13:54:43.998Z,101840.63
2022-12-27T13:57:37.863Z,101841.16
2022-12-27T14:00:12.335Z,101838.97
2022-12-27T14:02:55.279Z,101844.50
2022-12-27T14:05:47.657Z,101846.25
2022-12-27T14:09:01.524Z,101846.25
2022-12-27T14:12:02.964Z,101831.16
2022-12-27T14:14:36.459Z,101839.28
2022-12-27T14:17:39.548Z,101843.38
2022-12-27T14:20:19.396Z,101852.47
2022-12-27T14:23:02.696Z,101849.06
2022-12-27T14:25:49.158Z,101856.16
2022-12-27T14:28:43.454Z,101853.63
2022-12-27T14:31:30.063Z,101849.25
2022-12-27T14:34:23.604Z,101851.94
2022-12-27T14:37:09.228Z,101852.81
2022-12-27T14:40:13.768Z,101859.22
2022-12-27T14:43:03.558Z,101854.25
2022-12-27T14:45:57.708Z,101865.47
2022-12-27T14:48:34.955Z,101870.19
2022-12-27T14:51:59.378Z,101863.59
2022-12-27T14:54:47.833Z,101855.41
2022-12-27T14:57:27.476Z,101852.88
2022-12-27T15:00:22.016Z,101850.06
2022-12-27T15:03:17.543Z,101861.63
2022-12-27T15:06:13.569Z,101861.53
2022-12-27T15:09:15.667Z,101864.94
2022-12-27T15:12:21.649Z,101867.84
2022-12-27T15:15:22.928Z,101872.06
2022-12-27T15:18:12.071Z,101871.81
2022-12-27T15:20:42.872Z,101881.31
2022-12-27T15:23:34.619Z,101874.78
2022-12-27T15:26:14.499Z,101879.13
2022-12-27T15:29:12.269Z,101875.31
2022-12-27T15:32:24.283Z,101882.47
2022-12-27T15:35:16.850Z,101879.91
2022-12-27T15:38:03.282Z,101875.50
2022-12-27T15:40:37.311Z,101879.38
2022-12-27T15:43:42.247Z,101884.50
2022-12-27T15:46:22.304Z,101888.59
2022-12-27T15:49:13.797Z,101889.53
2022-12-27T15:52:00.384Z,101889.84
2022-12-27T15:54:57.876Z,101895.94
2022-12-27T15:57:45.777Z,101886.41
2022-12-27T16:00:33.383Z,101898.59
2022-12-27T16:03:26.479Z,101900.63
2022-12-27T16:05:58.456Z,101906.97
2022-12-27T16:08:42.238Z,101904.69
2022-12-27T16:11:15.076Z,101904.59
2022-12-27T16:13:51.093Z,101912.00
2022-12-27T16:16:31.601Z,101924.81
2022-12-27T16:19:41.034Z,101919.28
2022-12-27T16:22:33.225Z,101926.31
2022-12-27T16:25:30.273Z,101922.94
2022-12-27T16:28:18.271Z,101920.34
2022-12-27T16:30:54.281Z,101930.13
2022-12-27T16:33:32.603Z,101928.28
2022-12-27T16:36:18.744Z,101934.41
2022-12-27T16:39:02.226Z,101944.56
2022-12-27T16:41:42.493Z,101943.38
2022-12-27T16:44:16.678Z,101937.75
2022-12-27T16:46:50.760Z,101937.38
2022-12-27T16:49:57.069Z,101937.75
2022-12-27T16:52:36.600Z,101949.75
2022-12-27T16:55:42.158Z,101946.81
2022-12-27T16:58:25.798Z,101952.06
2022-12-27T17:00:58.970Z,101945.91
2022-12-27T17:03:39.844Z,101955.97
2022-12-27T17:06:34.792Z,101948.63
2022-12-27T17:09:12.693Z,101961.88
2022-12-27T17:12:04.159Z,101970.69
2022-12-27T17:14:37.984Z,101962.53
2022-12-27T17:17:22.245Z,101968.69
2022-12-27T17:19:58.616Z,101966.94
2022-12-27T17:22:35.108Z,101960.53
2022-12-27T17:25:07.295Z,101958.88
2022-12-27T17:27:59.308Z,101950.66
2022-12-27T17:30:38.934Z,101955.28
2022-12-27T17:33:33.343Z,101959.66
2022-12-27T17:36:11.019Z,101949.88
2022-12-27T17:39:06.333Z,101959.78
2022-12-27T17:42:22.402Z,101966.72
2022-12-27T17:45:11.300Z,101968.25
2022-12-27T17:47:49.819Z,101964.09
2022-12-27T17:50:27.967Z,101963.75
2022-12-27T17:53:31.319Z,101961.53
2022-12-27T17:56:21.934Z,101968.72
2022-12-27T17:58:58.039Z,101976.72
2022-12-27T18:01:33.387Z,101981.66
2022-12-27T18:04:06.199Z,101982.84
2022-12-27T18:06:38.944Z,101978.25
2022-12-27T18:09:09.990Z,101978.88
2022-12-27T18:11:43.882Z,101975.59
2022-12-27T18:14:16.159Z,101988.13
2022-12-27T18:16:47.472Z,101966.69
2022-12-27T18:19:22.771Z,101987.28
2022-12-27T18:22:00.194Z,101979.63
2022-12-27T18:24:34.461Z,101978.38
2022-12-27T18:27:08.400Z,101994.78
2022-12-27T18:29:39.447Z,101986.22
2022-12-27T18:32:12.156Z,101991.25
2022-12-27T18:34:56.445Z,101987.13
2022-12-27T18:37:28.701Z,101993.03
2022-12-27T18:40:02.143Z,101997.75
2022-12-27T18:42:37.115Z,101986.13
2022-12-27T18:45:30.973Z,101993.50
2022-12-27T18:48:03.658Z,101997.09
2022-12-27T18:50:37.023Z,102001.59
2022-12-27T18:53:24.153Z,102003.63
2022-12-27T18:56:02.946Z,102007.00
2022-12-27T18:58:34.975Z,102010.31
2022-12-27T19:01:29.169Z,102013.03
2022-12-27T19:04:19.146Z,102013.13
2022-12-27T19:07:14.652Z,102012.09
2022-12-27T19:09:53.286Z,102015.09
2022-12-27T19:12:30.888Z,102005.53
2022-12-27T19:15:19.557Z,102024.47
2022-12-27T19:17:53.857Z,102017.81
2022-12-27T19:20:36.685Z,102022.41
2022-12-27T19:23:26.877Z,102020.47
2022-12-27T19:26:18.432Z,102028.72
2022-12-27T19:29:16.166Z,102018.56
2022-12-27T19:32:07.955Z,102021.56
2022-12-27T19:34:49.757Z,102012.16
2022-12-27T19:37:21.191Z,102010.84
2022-12-27T19:39:52.263Z,102017.03
2022-12-27T19:42:31.182Z,102011.69
2022-12-27T19:45:03.253Z,102007.84
2022-12-27T19:47:37.328Z,102025.91
2022-12-27T19:50:08.779Z,102031.66
2022-12-27T19:52:40.624Z,102020.00
2022-12-27T19:55:18.872Z,102016.00
2022-12-27T19:57:50.077Z,102017.28
2022-12-27T20:00:22.244Z,102017.28
2022-12-27T20:02:53.368Z,102018.56
2022-12-27T20:06:13.328Z,102008.06
2022-12-27T20:08:22.137Z,101998.13
2022-12-27T20:10:53.574Z,101989.94
2022-12-27T20:13:26.106Z,101994.28
2022-12-27T20:15:59.891Z,101985.00
2022-12-27T20:18:30.981Z,101987.91
2022-12-27T20:21:02.213Z,101989.00
2022-12-27T20:23:33.692Z,101982.44
2022-12-27T20:26:05.000Z,101998.41
2022-12-27T20:28:36.571Z,101998.50
2022-12-27T20:31:13.043Z,101992.47
2022-12-27T20:33:44.491Z,101995.66
2022-12-27T20:36:15.653Z,101987.13
2022-12-27T20:38:46.728Z,101986.59
2022-12-27T20:41:20.734Z,101987.81
2022-12-27T20:43:59.084Z,101970.16
2022-12-27T20:46:30.158Z,101968.31
2022-12-27T20:49:02.071Z,101973.38
2022-12-27T20:51:36.159Z,101972.34
2022-12-27T20:54:07.882Z,101978.47
2022-12-27T20:56:38.248Z,101974.16
2022-12-27T20:59:09.666Z,101972.25
2022-12-27T21:01:40.778Z,101969.56
2022-12-27T21:04:12.363Z,101972.50
2022-12-27T21:06:43.698Z,101963.41
2022-12-27T21:09:15.042Z,101960.06
2022-12-27T21:11:46.557Z,101959.25
2022-12-27T21:14:17.610Z,101970.16
2022-12-27T21:16:49.281Z,101956.25
2022-12-27T21:19:21.084Z,101968.50
2022-12-27T21:21:52.263Z,101961.06
2022-12-27T21:24:22.931Z,101969.63
2022-12-27T21:26:56.556Z,101964.53
2022-12-27T21:29:27.789Z,101968.09
2022-12-27T21:31:58.767Z,101972.19
2022-12-27T21:34:29.991Z,101976.94
2022-12-27T21:37:05.428Z,101964.16
2022-12-27T21:39:40.161Z,101968.13
2022-12-27T21:42:12.481Z,101971.94
2022-12-27T21:44:43.945Z,101972.50
2022-12-27T21:47:15.073Z,101974.34
2022-12-27T21:49:45.682Z,101977.63
2022-12-27T21:52:16.647Z,101977.09
2022-12-27T21:54:47.631Z,101968.63
2022-12-27T21:57:19.039Z,101974.84
2022-12-27T21:59:50.162Z,101980.50
2022-12-27T22:02:21.322Z,101981.00
2022-12-27T22:04:51.725Z,101983.84
2022-12-27T22:07:22.603Z,101975.91
2022-12-27T22:09:53.663Z,101988.63
2022-12-27T22:12:24.778Z,101979.84
2022-12-27T22:14:56.236Z,101982.28
2022-12-27T22:17:27.874Z,101980.00
2022-12-27T22:19:58.778Z,101986.03
2022-12-27T22:22:30.049Z,101992.59
2022-12-27T22:25:01.003Z,101990.91
2022-12-27T22:27:32.826Z,101994.00
2022-12-27T22:30:03.840Z,101986.91
2022-12-27T22:32:35.120Z,101987.53
2022-12-27T22:35:06.272Z,101982.66
2022-12-27T22:37:37.139Z,101995.13
2022-12-27T22:40:36.674Z,101998.66
2022-12-27T22:43:00.124Z,101998.28
2022-12-27T22:45:31.343Z,102003.31
2022-12-27T22:48:01.804Z,102010.53
2022-12-27T22:50:32.703Z,102009.28
2022-12-27T22:53:04.005Z,102015.81
2022-12-27T22:55:34.452Z,102003.84
2022-12-27T22:58:05.429Z,102007.25
2022-12-27T23:00:36.581Z,102010.28
2022-12-27T23:03:07.804Z,102013.94
2022-12-27T23:05:39.167Z,102008.38
2022-12-27T23:08:10.282Z,102014.56
2022-12-27T23:10:41.119Z,102010.38
2022-12-27T23:13:11.679Z,102013.91
2022-12-27T23:15:42.723Z,101999.78
2022-12-27T23:18:14.348Z,102005.16
2022-12-27T23:21:21.165Z,101999.50
2022-12-27T23:23:38.323Z,102008.88
2022-12-27T23:26:20.505Z,102003.81
2022-12-27T23:28:53.698Z,102000.41
2022-12-27T23:31:26.759Z,101995.31
2022-12-27T23:33:58.355Z,101991.72
2022-12-27T23:36:29.602Z,101997.19
2022-12-27T23:39:00.858Z,101985.06
2022-12-27T23:41:32.195Z,101994.06
2022-12-27T23:44:03.480Z,101978.72
2022-12-27T23:46:36.632Z,101982.84
2022-12-27T23:49:07.587Z,101975.06
2022-12-27T23:51:39.020Z,101991.91
2022-12-27T23:54:09.513Z,101988.38
2022-12-27T23:56:40.811Z,101975.66
2022-12-27T23:59:13.099Z,101979.56
